To NAV CANADA Home Page Login to a new session Search on AWWS site Feedback and Comments Disclaimer Vers la page française équivalente Tips FAQ What's new on the site To the Forecasts and Observations / NOTAM section To "File a Flight Plan" website Publications and other links Update of the User's profile FIC Telephone Numbers My Weather Data Folder Route Weather Data Regional Weather Data Local Weather Data To the Forecasts and Observations / NOTAM section
Request Generated 12/04/2016 at 22:24:23 UTC . Weather information available at that time is displayed.

METAR/TAF

KELOWNA/BC    (show WxCam)

SPECI CYLW 042223Z AUTO 30013KT 9SM BKN055 BKN072 BKN250 03/M07 A2988
RMK SLP134=
METAR CYLW 042200Z AUTO 34003KT 300V020 9SM BKN060 OVC070 02/M04
A2987 RMK SLP133=
METAR CYLW 042100Z AUTO 31010KT 280V340 9SM OVC055 03/M06 A2984 RMK
SLP122=
METAR CYLW 042000Z AUTO VRB03KT 9SM SCT035 OVC046 03/M01 A2982 RMK
SLP114=

TAF CYLW 041838Z 0419/0507 VRB03KT P6SM SCT050 BKN090 TEMPO 0419/0421
5SM -SHRASN BR BKN040
FM042100 34005KT P6SM FEW050 SCT110
RMK FCST BASED ON AUTO OBS. NXT FCST BY 050100Z=
Your time UTC time
Weather data provided by Environment Canada and NAV CANADA